sensor_id;sensor_type;location;lat;lon;timestamp;pressure;altitude;pressure_sealevel;temperature
73685;BMP280;61985;51.070;14.064;2023-11-21T00:02:15;97890.38;;;5.36
73685;BMP280;61985;51.070;14.064;2023-11-21T00:04:41;97893.88;;;5.32
73685;BMP280;61985;51.070;14.064;2023-11-21T00:07:06;97906.47;;;5.32
73685;BMP280;61985;51.070;14.064;2023-11-21T00:09:32;97900.31;;;5.35
73685;BMP280;61985;51.070;14.064;2023-11-21T00:11:57;97904.09;;;5.38
73685;BMP280;61985;51.070;14.064;2023-11-21T00:14:24;97895.72;;;5.36
73685;BMP280;61985;51.070;14.064;2023-11-21T00:16:50;97894.16;;;5.38
73685;BMP280;61985;51.070;14.064;2023-11-21T00:19:15;97894.09;;;5.45
73685;BMP280;61985;51.070;14.064;2023-11-21T00:21:41;97896.63;;;5.53
73685;BMP280;61985;51.070;14.064;2023-11-21T00:24:09;97896.28;;;5.50
73685;BMP280;61985;51.070;14.064;2023-11-21T00:26:35;97892.44;;;5.51
73685;BMP280;61985;51.070;14.064;2023-11-21T00:29:02;97897.00;;;5.55
73685;BMP280;61985;51.070;14.064;2023-11-21T00:31:27;97895.41;;;5.57
73685;BMP280;61985;51.070;14.064;2023-11-21T00:33:53;97906.34;;;5.66
73685;BMP280;61985;51.070;14.064;2023-11-21T00:36:20;97907.78;;;5.75
73685;BMP280;61985;51.070;14.064;2023-11-21T00:38:46;97907.78;;;5.71
73685;BMP280;61985;51.070;14.064;2023-11-21T00:41:11;97903.97;;;5.72
73685;BMP280;61985;51.070;14.064;2023-11-21T00:43:36;97916.19;;;5.73
73685;BMP280;61985;51.070;14.064;2023-11-21T00:46:08;97903.91;;;5.76
73685;BMP280;61985;51.070;14.064;2023-11-21T00:48:33;97903.88;;;5.79
73685;BMP280;61985;51.070;14.064;2023-11-21T00:50:59;97906.16;;;5.81
73685;BMP280;61985;51.070;14.064;2023-11-21T00:53:24;97914.09;;;5.84
73685;BMP280;61985;51.070;14.064;2023-11-21T00:55:50;97908.66;;;5.92
73685;BMP280;61985;51.070;14.064;2023-11-21T00:58:17;97901.38;;;5.92
73685;BMP280;61985;51.070;14.064;2023-11-21T01:00:42;97901.66;;;5.98
73685;BMP280;61985;51.070;14.064;2023-11-21T01:03:09;97910.84;;;5.97
73685;BMP280;61985;51.070;14.064;2023-11-21T01:05:34;97909.63;;;6.01
73685;BMP280;61985;51.070;14.064;2023-11-21T01:07:59;97906.13;;;6.04
73685;BMP280;61985;51.070;14.064;2023-11-21T01:10:25;97915.28;;;6.07
73685;BMP280;61985;51.070;14.064;2023-11-21T01:12:50;97917.56;;;6.05
73685;BMP280;61985;51.070;14.064;2023-11-21T01:15:16;97915.28;;;6.07
73685;BMP280;61985;51.070;14.064;2023-11-21T01:17:41;97918.59;;;6.11
73685;BMP280;61985;51.070;14.064;2023-11-21T01:20:08;97919.63;;;6.21
73685;BMP280;61985;51.070;14.064;2023-11-21T01:22:38;97921.78;;;6.26
73685;BMP280;61985;51.070;14.064;2023-11-21T01:25:04;97925.94;;;6.31
73685;BMP280;61985;51.070;14.064;2023-11-21T01:27:31;97926.69;;;6.31
73685;BMP280;61985;51.070;14.064;2023-11-21T01:29:57;97925.31;;;6.43
73685;BMP280;61985;51.070;14.064;2023-11-21T01:32:22;97925.66;;;6.45
73685;BMP280;61985;51.070;14.064;2023-11-21T01:34:47;97922.94;;;6.49
73685;BMP280;61985;51.070;14.064;2023-11-21T01:37:13;97920.88;;;6.56
73685;BMP280;61985;51.070;14.064;2023-11-21T01:39:38;97921.28;;;6.55
73685;BMP280;61985;51.070;14.064;2023-11-21T01:42:05;97922.03;;;6.55
73685;BMP280;61985;51.070;14.064;2023-11-21T01:44:30;97922.03;;;6.55
73685;BMP280;61985;51.070;14.064;2023-11-21T01:46:56;97924.31;;;6.57
73685;BMP280;61985;51.070;14.064;2023-11-21T01:49:22;97918.22;;;6.56
73685;BMP280;61985;51.070;14.064;2023-11-21T01:51:49;97921.22;;;6.58
73685;BMP280;61985;51.070;14.064;2023-11-21T01:54:18;97918.88;;;6.60
73685;BMP280;61985;51.070;14.064;2023-11-21T01:56:48;97922.38;;;6.57
73685;BMP280;61985;51.070;14.064;2023-11-21T01:59:20;97925.81;;;6.58
73685;BMP280;61985;51.070;14.064;2023-11-21T02:01:49;97931.13;;;6.61
73685;BMP280;61985;51.070;14.064;2023-11-21T02:04:15;97934.88;;;6.64
73685;BMP280;61985;51.070;14.064;2023-11-21T02:06:41;97919.63;;;6.61
73685;BMP280;61985;51.070;14.064;2023-11-21T02:09:06;97915.38;;;6.63
73685;BMP280;61985;51.070;14.064;2023-11-21T02:11:31;97923.09;;;6.61
73685;BMP280;61985;51.070;14.064;2023-11-21T02:14:00;97927.63;;;6.64
73685;BMP280;61985;51.070;14.064;2023-11-21T02:16:26;97923.75;;;6.66
73685;BMP280;61985;51.070;14.064;2023-11-21T02:18:52;97927.63;;;6.64
73685;BMP280;61985;51.070;14.064;2023-11-21T02:21:18;97923.00;;;6.65
73685;BMP280;61985;51.070;14.064;2023-11-21T02:23:44;97923.31;;;6.67
73685;BMP280;61985;51.070;14.064;2023-11-21T02:26:12;97919.50;;;6.68
73685;BMP280;61985;51.070;14.064;2023-11-21T02:28:37;97927.13;;;6.70
73685;BMP280;61985;51.070;14.064;2023-11-21T02:31:04;97928.63;;;6.71
73685;BMP280;61985;51.070;14.064;2023-11-21T02:33:30;97921.00;;;6.69
73685;BMP280;61985;51.070;14.064;2023-11-21T02:35:59;97937.81;;;6.70
73685;BMP280;61985;51.070;14.064;2023-11-21T02:38:25;97930.53;;;6.70
73685;BMP280;61985;51.070;14.064;2023-11-21T02:40:50;97934.00;;;6.71
73685;BMP280;61985;51.070;14.064;2023-11-21T02:43:16;97934.00;;;6.71
73685;BMP280;61985;51.070;14.064;2023-11-21T02:45:41;97940.84;;;6.72
73685;BMP280;61985;51.070;14.064;2023-11-21T02:48:07;97940.09;;;6.71
73685;BMP280;61985;51.070;14.064;2023-11-21T02:50:32;97936.66;;;6.71
73685;BMP280;61985;51.070;14.064;2023-11-21T02:53:00;97938.16;;;6.72
73685;BMP280;61985;51.070;14.064;2023-11-21T02:55:26;97940.09;;;6.71
73685;BMP280;61985;51.070;14.064;2023-11-21T02:57:52;97940.84;;;6.72
73685;BMP280;61985;51.070;14.064;2023-11-21T03:00:17;97940.03;;;6.75
73685;BMP280;61985;51.070;14.064;2023-11-21T03:02:43;97938.53;;;6.74
73685;BMP280;61985;51.070;14.064;2023-11-21T03:05:09;97937.34;;;6.75
73685;BMP280;61985;51.070;14.064;2023-11-21T03:07:36;97935.47;;;6.72
73685;BMP280;61985;51.070;14.064;2023-11-21T03:10:02;97933.63;;;6.69
73685;BMP280;61985;51.070;14.064;2023-11-21T03:12:29;97928.78;;;6.63
73685;BMP280;61985;51.070;14.064;2023-11-21T03:14:54;97944.50;;;6.61
73685;BMP280;61985;51.070;14.064;2023-11-21T03:17:20;97944.91;;;6.60
73685;BMP280;61985;51.070;14.064;2023-11-21T03:19:46;97944.97;;;6.56
73685;BMP280;61985;51.070;14.064;2023-11-21T03:22:11;97944.69;;;6.51
73685;BMP280;61985;51.070;14.064;2023-11-21T03:24:37;97954.66;;;6.50
73685;BMP280;61985;51.070;14.064;2023-11-21T03:27:04;97950.88;;;6.48
73685;BMP280;61985;51.070;14.064;2023-11-21T03:29:29;97948.28;;;6.40
73685;BMP280;61985;51.070;14.064;2023-11-21T03:31:54;97953.25;;;6.42
73685;BMP280;61985;51.070;14.064;2023-11-21T03:34:29;97955.56;;;6.40
73685;BMP280;61985;51.070;14.064;2023-11-21T03:36:54;97955.25;;;6.38
73685;BMP280;61985;51.070;14.064;2023-11-21T03:39:20;97957.56;;;6.36
73685;BMP280;61985;51.070;14.064;2023-11-21T03:41:47;97959.09;;;6.37
73685;BMP280;61985;51.070;14.064;2023-11-21T03:44:13;97956.81;;;6.35
73685;BMP280;61985;51.070;14.064;2023-11-21T03:46:38;97961.44;;;6.35
73685;BMP280;61985;51.070;14.064;2023-11-21T03:49:04;97949.94;;;6.34
73685;BMP280;61985;51.070;14.064;2023-11-21T03:51:29;97960.25;;;6.36
73685;BMP280;61985;51.070;14.064;2023-11-21T03:53:54;97963.31;;;6.34
73685;BMP280;61985;51.070;14.064;2023-11-21T03:56:20;97964.09;;;6.35
73685;BMP280;61985;51.070;14.064;2023-11-21T03:58:48;97971.31;;;6.38
73685;BMP280;61985;51.070;14.064;2023-11-21T04:01:24;97972.88;;;6.35
73685;BMP280;61985;51.070;14.064;2023-11-21T04:03:50;97976.31;;;6.36
73685;BMP280;61985;51.070;14.064;2023-11-21T04:06:16;97975.47;;;6.39
73685;BMP280;61985;51.070;14.064;2023-11-21T04:08:43;97968.94;;;6.40
73685;BMP280;61985;51.070;14.064;2023-11-21T04:11:09;97965.19;;;6.37
73685;BMP280;61985;51.070;14.064;2023-11-21T04:13:37;97966.78;;;6.35
73685;BMP280;61985;51.070;14.064;2023-11-21T04:16:04;97967.19;;;6.33
73685;BMP280;61985;51.070;14.064;2023-11-21T04:18:30;97958.38;;;6.33
73685;BMP280;61985;51.070;14.064;2023-11-21T04:20:55;97971.41;;;6.31
73685;BMP280;61985;51.070;14.064;2023-11-21T04:23:20;97974.56;;;6.25
73685;BMP280;61985;51.070;14.064;2023-11-21T04:25:46;97973.16;;;6.17
73685;BMP280;61985;51.070;14.064;2023-11-21T04:28:11;97972.34;;;6.20
73685;BMP280;61985;51.070;14.064;2023-11-21T04:30:37;97978.47;;;6.21
73685;BMP280;61985;51.070;14.064;2023-11-21T04:33:04;97970.47;;;6.17
73685;BMP280;61985;51.070;14.064;2023-11-21T04:35:30;97982.38;;;6.16
73685;BMP280;61985;51.070;14.064;2023-11-21T04:37:55;97982.72;;;6.18
73685;BMP280;61985;51.070;14.064;2023-11-21T04:40:22;97980.84;;;6.15
73685;BMP280;61985;51.070;14.064;2023-11-21T04:42:47;97984.00;;;6.10
73685;BMP280;61985;51.070;14.064;2023-11-21T04:45:13;97987.44;;;6.11
73685;BMP280;61985;51.070;14.064;2023-11-21T04:47:38;97993.09;;;6.13
73685;BMP280;61985;51.070;14.064;2023-11-21T04:50:04;98001.53;;;6.11
73685;BMP280;61985;51.070;14.064;2023-11-21T04:52:31;97991.19;;;6.13
73685;BMP280;61985;51.070;14.064;2023-11-21T04:54:57;98001.53;;;6.11
73685;BMP280;61985;51.070;14.064;2023-11-21T04:57:24;97994.69;;;6.10
73685;BMP280;61985;51.070;14.064;2023-11-21T04:59:49;97993.50;;;6.11
73685;BMP280;61985;51.070;14.064;2023-11-21T05:02:15;97999.22;;;6.13
73685;BMP280;61985;51.070;14.064;2023-11-21T05:04:41;97999.97;;;6.14
73685;BMP280;61985;51.070;14.064;2023-11-21T05:07:08;98004.91;;;6.15
73685;BMP280;61985;51.070;14.064;2023-11-21T05:09:33;98000.31;;;6.16
73685;BMP280;61985;51.070;14.064;2023-11-21T05:11:59;98002.59;;;6.17
73685;BMP280;61985;51.070;14.064;2023-11-21T05:14:25;97999.91;;;6.17
73685;BMP280;61985;51.070;14.064;2023-11-21T05:16:50;98013.66;;;6.19
73685;BMP280;61985;51.070;14.064;2023-11-21T05:19:17;98020.50;;;6.20
73685;BMP280;61985;51.070;14.064;2023-11-21T05:21:42;98017.44;;;6.22
73685;BMP280;61985;51.070;14.064;2023-11-21T05:24:08;98017.44;;;6.22
73685;BMP280;61985;51.070;14.064;2023-11-21T05:26:34;98020.50;;;6.20
73685;BMP280;61985;51.070;14.064;2023-11-21T05:29:00;98015.94;;;6.21
73685;BMP280;61985;51.070;14.064;2023-11-21T05:31:25;98019.69;;;6.23
73685;BMP280;61985;51.070;14.064;2023-11-21T05:33:52;98020.50;;;6.20
73685;BMP280;61985;51.070;14.064;2023-11-21T05:36:18;98021.63;;;6.23
73685;BMP280;61985;51.070;14.064;2023-11-21T05:38:43;98022.78;;;6.22
73685;BMP280;61985;51.070;14.064;2023-11-21T05:41:09;98024.28;;;6.23
73685;BMP280;61985;51.070;14.064;2023-11-21T05:43:36;98018.19;;;6.22
73685;BMP280;61985;51.070;14.064;2023-11-21T05:46:01;98033.47;;;6.22
73685;BMP280;61985;51.070;14.064;2023-11-21T05:48:27;98032.72;;;6.21
73685;BMP280;61985;51.070;14.064;2023-11-21T05:50:52;98036.44;;;6.28
73685;BMP280;61985;51.070;14.064;2023-11-21T05:53:18;98038.75;;;6.25
73685;BMP280;61985;51.070;14.064;2023-11-21T05:55:43;98034.16;;;6.26
73685;BMP280;61985;51.070;14.064;2023-11-21T05:58:08;98037.19;;;6.28
73685;BMP280;61985;51.070;14.064;2023-11-21T06:00:34;98039.09;;;6.28
73685;BMP280;61985;51.070;14.064;2023-11-21T06:02:59;98036.84;;;6.26
73685;BMP280;61985;51.070;14.064;2023-11-21T06:05:26;98050.94;;;6.30
73685;BMP280;61985;51.070;14.064;2023-11-21T06:07:55;98042.13;;;6.30
73685;BMP280;61985;51.070;14.064;2023-11-21T06:10:23;98035.69;;;6.27
73685;BMP280;61985;51.070;14.064;2023-11-21T06:12:49;98042.53;;;6.28
73685;BMP280;61985;51.070;14.064;2023-11-21T06:15:15;98049.06;;;6.27
73685;BMP280;61985;51.070;14.064;2023-11-21T06:17:42;98041.88;;;6.24
73685;BMP280;61985;51.070;14.064;2023-11-21T06:20:09;98050.66;;;6.24
73685;BMP280;61985;51.070;14.064;2023-11-21T06:22:39;98051.38;;;6.25
73685;BMP280;61985;51.070;14.064;2023-11-21T06:25:05;98058.59;;;6.28
73685;BMP280;61985;51.070;14.064;2023-11-21T06:27:37;98057.50;;;6.25
73685;BMP280;61985;51.070;14.064;2023-11-21T06:30:02;98053.31;;;6.24
73685;BMP280;61985;51.070;14.064;2023-11-21T06:32:29;98056.31;;;6.26
73685;BMP280;61985;51.070;14.064;2023-11-21T06:34:55;98060.91;;;6.26
73685;BMP280;61985;51.070;14.064;2023-11-21T06:37:20;98071.56;;;6.30
73685;BMP280;61985;51.070;14.064;2023-11-21T06:39:48;98065.88;;;6.28
73685;BMP280;61985;51.070;14.064;2023-11-21T06:42:14;98066.63;;;6.28
73685;BMP280;61985;51.070;14.064;2023-11-21T06:44:40;98070.41;;;6.31
73685;BMP280;61985;51.070;14.064;2023-11-21T06:47:06;98074.25;;;6.30
73685;BMP280;61985;51.070;14.064;2023-11-21T06:49:32;98066.22;;;6.30
73685;BMP280;61985;51.070;14.064;2023-11-21T06:51:57;98068.47;;;6.31
73685;BMP280;61985;51.070;14.064;2023-11-21T06:54:24;98079.91;;;6.35
73685;BMP280;61985;51.070;14.064;2023-11-21T06:56:49;98074.16;;;6.37
73685;BMP280;61985;51.070;14.064;2023-11-21T06:59:15;98070.34;;;6.34
73685;BMP280;61985;51.070;14.064;2023-11-21T07:01:41;98071.88;;;6.35
73685;BMP280;61985;51.070;14.064;2023-11-21T07:04:06;98084.09;;;6.36
73685;BMP280;61985;51.070;14.064;2023-11-21T07:06:32;98075.31;;;6.36
73685;BMP280;61985;51.070;14.064;2023-11-21T07:08:58;98080.66;;;6.36
73685;BMP280;61985;51.070;14.064;2023-11-21T07:11:26;98086.38;;;6.38
73685;BMP280;61985;51.070;14.064;2023-11-21T07:13:52;98082.94;;;6.37
73685;BMP280;61985;51.070;14.064;2023-11-21T07:16:20;98093.97;;;6.39
73685;BMP280;61985;51.070;14.064;2023-11-21T07:37:00;98095.06;;;6.42
73685;BMP280;61985;51.070;14.064;2023-11-21T07:39:26;98110.69;;;6.47
73685;BMP280;61985;51.070;14.064;2023-11-21T07:41:51;98108.41;;;6.45
73685;BMP280;61985;51.070;14.064;2023-11-21T07:44:17;98111.03;;;6.49
73685;BMP280;61985;51.070;14.064;2023-11-21T07:46:42;98109.53;;;6.48
73685;BMP280;61985;51.070;14.064;2023-11-21T07:49:08;98111.44;;;6.48
73685;BMP280;61985;51.070;14.064;2023-11-21T07:51:34;98117.91;;;6.50
73685;BMP280;61985;51.070;14.064;2023-11-21T07:53:59;98118.66;;;6.51
73685;BMP280;61985;51.070;14.064;2023-11-21T07:56:25;98117.91;;;6.50
73685;BMP280;61985;51.070;14.064;2023-11-21T07:58:51;98111.78;;;6.50
73685;BMP280;61985;51.070;14.064;2023-11-21T08:01:20;98116.41;;;6.49
73685;BMP280;61985;51.070;14.064;2023-11-21T08:03:45;98116.75;;;6.51
73685;BMP280;61985;51.070;14.064;2023-11-21T08:06:10;98120.50;;;6.54
73685;BMP280;61985;51.070;14.064;2023-11-21T08:08:37;98121.22;;;6.58
73685;BMP280;61985;51.070;14.064;2023-11-21T08:11:02;98123.06;;;6.61
73685;BMP280;61985;51.070;14.064;2023-11-21T08:13:29;98120.00;;;6.62
73685;BMP280;61985;51.070;14.064;2023-11-21T08:15:59;98117.25;;;6.66
73685;BMP280;61985;51.070;14.064;2023-11-21T08:18:28;98117.91;;;6.74
73685;BMP280;61985;51.070;14.064;2023-11-21T08:20:54;98119.47;;;6.71
73685;BMP280;61985;51.070;14.064;2023-11-21T08:23:20;98121.34;;;6.74
73685;BMP280;61985;51.070;14.064;2023-11-21T08:25:45;98121.41;;;6.71
73685;BMP280;61985;51.070;14.064;2023-11-21T08:28:12;98120.94;;;6.76
73685;BMP280;61985;51.070;14.064;2023-11-21T08:30:37;98124.72;;;6.78
73685;BMP280;61985;51.070;14.064;2023-11-21T08:33:03;98122.06;;;6.78
73685;BMP280;61985;51.070;14.064;2023-11-21T08:35:29;98116.59;;;6.82
73685;BMP280;61985;51.070;14.064;2023-11-21T08:37:55;98130.75;;;6.82
73685;BMP280;61985;51.070;14.064;2023-11-21T08:40:20;98128.88;;;6.79
73685;BMP280;61985;51.070;14.064;2023-11-21T08:42:47;98123.22;;;6.77
73685;BMP280;61985;51.070;14.064;2023-11-21T08:45:15;98132.69;;;6.82
73685;BMP280;61985;51.070;14.064;2023-11-21T08:47:42;98129.53;;;6.87
73685;BMP280;61985;51.070;14.064;2023-11-21T08:50:09;98139.81;;;6.92
73685;BMP280;61985;51.070;14.064;2023-11-21T08:52:37;98134.75;;;6.94
73685;BMP280;61985;51.070;14.064;2023-11-21T08:55:08;98133.59;;;6.95
73685;BMP280;61985;51.070;14.064;2023-11-21T08:57:38;98138.56;;;6.97
73685;BMP280;61985;51.070;14.064;2023-11-21T09:00:04;98138.19;;;6.95
73685;BMP280;61985;51.070;14.064;2023-11-21T09:02:33;98145.00;;;6.99
73685;BMP280;61985;51.070;14.064;2023-11-21T09:04:59;98139.66;;;6.99
73685;BMP280;61985;51.070;14.064;2023-11-21T09:07:28;98143.91;;;6.97
73685;BMP280;61985;51.070;14.064;2023-11-21T09:09:54;98144.25;;;6.99
73685;BMP280;61985;51.070;14.064;2023-11-21T09:12:20;98147.66;;;7.03
73685;BMP280;61985;51.070;14.064;2023-11-21T09:14:46;98148.88;;;6.98
73685;BMP280;61985;51.070;14.064;2023-11-21T09:17:11;98146.88;;;7.02
73685;BMP280;61985;51.070;14.064;2023-11-21T09:19:40;98161.44;;;7.01
73685;BMP280;61985;51.070;14.064;2023-11-21T09:22:06;98168.78;;;6.97
73685;BMP280;61985;51.070;14.064;2023-11-21T09:24:32;98159.22;;;6.96
73685;BMP280;61985;51.070;14.064;2023-11-21T09:26:58;98160.00;;;6.97
73685;BMP280;61985;51.070;14.064;2023-11-21T09:29:27;98163.34;;;7.01
73685;BMP280;61985;51.070;14.064;2023-11-21T09:31:54;98157.59;;;7.02
73685;BMP280;61985;51.070;14.064;2023-11-21T09:34:20;98159.94;;;7.00
73685;BMP280;61985;51.070;14.064;2023-11-21T09:36:46;98166.66;;;7.09
73685;BMP280;61985;51.070;14.064;2023-11-21T09:39:13;98155.09;;;7.15
73685;BMP280;61985;51.070;14.064;2023-11-21T09:41:51;98172.53;;;7.24
73685;BMP280;61985;51.070;14.064;2023-11-21T09:44:24;98172.47;;;7.27
73685;BMP280;61985;51.070;14.064;2023-11-21T09:46:57;98180.88;;;7.29
73685;BMP280;61985;51.070;14.064;2023-11-21T09:49:26;98165.47;;;7.33
73685;BMP280;61985;51.070;14.064;2023-11-21T09:51:54;98177.50;;;7.25
73685;BMP280;61985;51.070;14.064;2023-11-21T09:54:21;98182.63;;;7.16
73685;BMP280;61985;51.070;14.064;2023-11-21T09:56:47;98187.66;;;7.14
73685;BMP280;61985;51.070;14.064;2023-11-21T09:59:14;98188.06;;;7.12
73685;BMP280;61985;51.070;14.064;2023-11-21T10:01:41;98192.69;;;7.08
73685;BMP280;61985;51.070;14.064;2023-11-21T10:04:10;98203.06;;;6.82
73685;BMP280;61985;51.070;14.064;2023-11-21T10:06:41;98206.28;;;6.70
73685;BMP280;61985;51.070;14.064;2023-11-21T10:09:10;98217.94;;;6.60
73685;BMP280;61985;51.070;14.064;2023-11-21T10:11:42;98215.78;;;6.51
73685;BMP280;61985;51.070;14.064;2023-11-21T10:14:12;98220.44;;;6.43
73685;BMP280;61985;51.070;14.064;2023-11-21T10:16:39;98218.66;;;6.37
73685;BMP280;61985;51.070;14.064;2023-11-21T10:19:06;98219.25;;;6.48
73685;BMP280;61985;51.070;14.064;2023-11-21T10:21:35;98220.28;;;6.27
73685;BMP280;61985;51.070;14.064;2023-11-21T10:24:00;98218.06;;;6.22
73685;BMP280;61985;51.070;14.064;2023-11-21T10:26:28;98234.50;;;6.20
73685;BMP280;61985;51.070;14.064;2023-11-21T10:29:01;98229.97;;;6.17
73685;BMP280;61985;51.070;14.064;2023-11-21T10:31:30;98227.69;;;6.16
73685;BMP280;61985;51.070;14.064;2023-11-21T10:34:15;98231.13;;;6.16
73685;BMP280;61985;51.070;14.064;2023-11-21T10:36:41;98230.41;;;6.12
73685;BMP280;61985;51.070;14.064;2023-11-21T10:39:07;98228.25;;;6.00
73685;BMP280;61985;51.070;14.064;2023-11-21T10:41:32;98226.34;;;6.00
73685;BMP280;61985;51.070;14.064;2023-11-21T10:43:58;98238.56;;;6.01
73685;BMP280;61985;51.070;14.064;2023-11-21T10:46:23;98239.31;;;6.02
73685;BMP280;61985;51.070;14.064;2023-11-21T10:48:54;98240.09;;;6.02
73685;BMP280;61985;51.070;14.064;2023-11-21T10:51:21;98238.22;;;5.99
73685;BMP280;61985;51.070;14.064;2023-11-21T10:53:46;98244.34;;;5.96
73685;BMP280;61985;51.070;14.064;2023-11-21T10:56:14;98248.25;;;5.92
73685;BMP280;61985;51.070;14.064;2023-11-21T10:58:45;98246.00;;;5.83
73685;BMP280;61985;51.070;14.064;2023-11-21T11:01:11;98249.94;;;5.71
73685;BMP280;61985;51.070;14.064;2023-11-21T11:03:39;98259.06;;;5.77
73685;BMP280;61985;51.070;14.064;2023-11-21T11:06:06;98262.91;;;5.73
73685;BMP280;61985;51.070;14.064;2023-11-21T11:08:37;98257.97;;;5.71
73685;BMP280;61985;51.070;14.064;2023-11-21T11:11:04;98262.59;;;5.67
73685;BMP280;61985;51.070;14.064;2023-11-21T11:13:30;98265.97;;;5.75
73685;BMP280;61985;51.070;14.064;2023-11-21T11:16:00;98261.06;;;5.66
73685;BMP280;61985;51.070;14.064;2023-11-21T11:18:29;98261.03;;;5.73
73685;BMP280;61985;51.070;14.064;2023-11-21T11:26:44;98272.34;;;5.46
73685;BMP280;61985;51.070;14.064;2023-11-21T11:29:21;98280.38;;;5.43
73685;BMP280;61985;51.070;14.064;2023-11-21T11:32:00;98272.72;;;5.45
73685;BMP280;61985;51.070;14.064;2023-11-21T11:34:36;98276.53;;;5.47
73685;BMP280;61985;51.070;14.064;2023-11-21T11:37:06;98281.47;;;5.49
73685;BMP280;61985;51.070;14.064;2023-11-21T11:39:36;98275.72;;;5.50
73685;BMP280;61985;51.070;14.064;2023-11-21T11:42:04;98279.56;;;5.49
73685;BMP280;61985;51.070;14.064;2023-11-21T11:44:59;98283.72;;;5.50
73685;BMP280;61985;51.070;14.064;2023-11-21T11:47:28;98286.41;;;5.50
73685;BMP280;61985;51.070;14.064;2023-11-21T11:50:08;98281.06;;;5.50
73685;BMP280;61985;51.070;14.064;2023-11-21T11:52:47;98277.31;;;5.44
73685;BMP280;61985;51.070;14.064;2023-11-21T11:55:15;98285.00;;;5.35
73685;BMP280;61985;51.070;14.064;2023-11-21T11:57:44;98286.59;;;5.29
73685;BMP280;61985;51.070;14.064;2023-11-21T12:00:17;98297.66;;;5.31
73685;BMP280;61985;51.070;14.064;2023-11-21T12:02:55;98299.19;;;5.28
73685;BMP280;61985;51.070;14.064;2023-11-21T12:05:26;98298.44;;;5.28
73685;BMP280;61985;51.070;14.064;2023-11-21T12:07:59;98314.94;;;5.16
73685;BMP280;61985;51.070;14.064;2023-11-21T12:10:26;98316.50;;;5.06
73685;BMP280;61985;51.070;14.064;2023-11-21T12:12:55;98311.19;;;5.02
73685;BMP280;61985;51.070;14.064;2023-11-21T12:15:21;98308.16;;;5.00
73685;BMP280;61985;51.070;14.064;2023-11-21T12:17:48;98318.88;;;4.93
73685;BMP280;61985;51.070;14.064;2023-11-21T12:20:15;98313.56;;;4.86
73685;BMP280;61985;51.070;14.064;2023-11-21T12:22:53;98316.63;;;4.84
73685;BMP280;61985;51.070;14.064;2023-11-21T12:25:20;98312.84;;;4.82
73685;BMP280;61985;51.070;14.064;2023-11-21T12:27:50;98319.00;;;4.71
73685;BMP280;61985;51.070;14.064;2023-11-21T12:30:21;98319.72;;;4.72
73685;BMP280;61985;51.070;14.064;2023-11-21T12:32:52;98328.13;;;4.70
73685;BMP280;61985;51.070;14.064;2023-11-21T12:35:18;98338.09;;;4.59
73685;BMP280;61985;51.070;14.064;2023-11-21T12:37:45;98339.25;;;4.54
73685;BMP280;61985;51.070;14.064;2023-11-21T12:40:12;98353.41;;;4.33
73685;BMP280;61985;51.070;14.064;2023-11-21T12:42:41;98350.38;;;4.28
73685;BMP280;61985;51.070;14.064;2023-11-21T12:47:48;98356.84;;;4.30
73685;BMP280;61985;51.070;14.064;2023-11-21T12:50:20;98354.16;;;4.30
73685;BMP280;61985;51.070;14.064;2023-11-21T12:52:58;98359.13;;;4.28
73685;BMP280;61985;51.070;14.064;2023-11-21T12:55:24;98366.38;;;4.31
73685;BMP280;61985;51.070;14.064;2023-11-21T12:57:52;98359.88;;;4.29
73685;BMP280;61985;51.070;14.064;2023-11-21T13:00:31;98370.59;;;4.22
73685;BMP280;61985;51.070;14.064;2023-11-21T13:02:58;98366.03;;;4.18
73685;BMP280;61985;51.070;14.064;2023-11-21T13:05:29;98376.28;;;4.27
73685;BMP280;61985;51.070;14.064;2023-11-21T13:08:00;98381.25;;;4.22
73685;BMP280;61985;51.070;14.064;2023-11-21T13:10:29;98392.28;;;4.24
73685;BMP280;61985;51.070;14.064;2023-11-21T13:12:57;98387.72;;;4.28
73685;BMP280;61985;51.070;14.064;2023-11-21T13:15:24;98391.53;;;4.23
73685;BMP280;61985;51.070;14.064;2023-11-21T13:17:50;98394.94;;;4.24
73685;BMP280;61985;51.070;14.064;2023-11-21T13:20:16;98398.38;;;4.35
73685;BMP280;61985;51.070;14.064;2023-11-21T13:22:49;98396.88;;;4.34
73685;BMP280;61985;51.070;14.064;2023-11-21T13:25:16;98388.88;;;4.19
73685;BMP280;61985;51.070;14.064;2023-11-21T13:27:46;98398.78;;;4.19
73685;BMP280;61985;51.070;14.064;2023-11-21T13:30:15;98399.94;;;4.11
73685;BMP280;61985;51.070;14.064;2023-11-21T13:32:44;98407.53;;;4.09
73685;BMP280;61985;51.070;14.064;2023-11-21T13:35:12;98406.00;;;4.04
73685;BMP280;61985;51.070;14.064;2023-11-21T13:37:50;98402.59;;;4.04
73685;BMP280;61985;51.070;14.064;2023-11-21T13:40:20;98409.44;;;4.01
73685;BMP280;61985;51.070;14.064;2023-11-21T13:42:48;98421.25;;;4.04
73685;BMP280;61985;51.070;14.064;2023-11-21T13:45:14;98419.00;;;3.98
73685;BMP280;61985;51.070;14.064;2023-11-21T13:47:39;98430.78;;;3.97
73685;BMP280;61985;51.070;14.064;2023-11-21T13:50:05;98425.84;;;3.99
73685;BMP280;61985;51.070;14.064;2023-11-21T13:52:39;98440.28;;;4.06
73685;BMP280;61985;51.070;14.064;2023-11-21T13:55:04;98449.44;;;4.05
73685;BMP280;61985;51.070;14.064;2023-11-21T13:57:32;98447.94;;;4.00
73685;BMP280;61985;51.070;14.064;2023-11-21T13:59:57;98453.25;;;3.96
73685;BMP280;61985;51.070;14.064;2023-11-21T14:02:24;98443.72;;;3.88
73685;BMP280;61985;51.070;14.064;2023-11-21T14:04:57;98454.00;;;3.82
73685;BMP280;61985;51.070;14.064;2023-11-21T14:07:26;98465.41;;;3.76
73685;BMP280;61985;51.070;14.064;2023-11-21T14:10:01;98469.19;;;3.64
73685;BMP280;61985;51.070;14.064;2023-11-21T14:12:28;98463.81;;;3.50
73685;BMP280;61985;51.070;14.064;2023-11-21T14:14:54;98463.03;;;3.38
73685;BMP280;61985;51.070;14.064;2023-11-21T14:17:20;98481.28;;;3.36
73685;BMP280;61985;51.070;14.064;2023-11-21T14:19:49;98469.84;;;3.28
73685;BMP280;61985;51.070;14.064;2023-11-21T14:22:14;98477.44;;;3.26
73685;BMP280;61985;51.070;14.064;2023-11-21T14:24:40;98478.22;;;3.34
73685;BMP280;61985;51.070;14.064;2023-11-21T14:27:12;98482.78;;;3.26
73685;BMP280;61985;51.070;14.064;2023-11-21T14:29:37;98493.78;;;3.21
73685;BMP280;61985;51.070;14.064;2023-11-21T14:32:06;98486.53;;;3.15
73685;BMP280;61985;51.070;14.064;2023-11-21T14:34:32;98489.50;;;3.06
73685;BMP280;61985;51.070;14.064;2023-11-21T14:36:58;98499.78;;;3.11